Tiempo atmosférico en la estación meteorológica de Soba, Alto Miera, Cantabria (695 m.)



Fecha
DESCASC
Temp. máxima en grados centígrados (hora)
DESCASC
Temp. mínima en grados centígrados (hora)
DESCASC
Temp. media en grados centígrados
DESCASC
Racha de viento máxima en m/sg (hora)
DESCASC
Velocidad máxima media en intervalos de 10 minutos(hora)
DESCASC
Precipitaciones diarias en mm
DESCASC
Precipitaciones de 00:00 a 06:00 en mm
DESCASC
Precipitaciones de 06:00 a 12:00 en mm
DESCASC
Precipitaciones de 12:00 a 18:00 en mm
DESCASC
Precipitaciones de 18:00 a 24:00 en mm
DESCASC
11-12-2019 11.6 (01:30) 4.3 (10:20) 8 16.39 (19:10) 6.94 (20:40) 0.2 0 0 0 0.2
10-12-2019 16.7 (14:50) 3.1 (04:50) 9.9 5 (08:10) 3.33 (08:10) 0 0 0 0 0
09-12-2019 7.4 (09:40) 5 (03:40) 6.2 12.5 (12:20) 6.39 (13:40) 0 0 0 0 0
08-12-2019 13 (09:20) 6.3 (00:00) 9.7 -- (--) -- (--) -- 0 -- 0 0
07-12-2019 14.1 (15:40) 5.9 (00:00) 10 4.72 (01:50) 2.5 (01:50) 0 0 0 0 0
06-12-2019 14.5 (13:30) 3.3 (00:00) 8.9 4.17 (20:50) 2.5 (06:30) 0 0 0 0 0
05-12-2019 7.4 (13:10) 3.6 (00:00) 5.5 8.89 (07:20) 4.72 (12:00) 0 0 0 0 0
04-12-2019 9.9 (12:20) 1.9 (00:00) 5.9 -- (--) -- (--) -- 0 -- 0 0
03-12-2019 5.9 (14:40) 0 (00:00) 3 -- (--) -- (--) -- 0 0 -- --
02-12-2019 6.2 (05:10) 3 (00:00) 4.6 10 (05:00) 5 (05:00) -- -- -- 0 0
01-12-2019 9.3 (11:40) 3.4 (00:00) 6.4 6.94 (07:40) 3.06 (07:20) 0.2 0 0.2 0 0
30-11-2019 15.6 (04:10) 4.7 (00:00) 10.2 12.5 (06:30) 5.83 (08:40) 25.8 0.2 13.8 11.8 0
29-11-2019 14.1 (15:30) 7.4 (00:00) 10.8 6.11 (02:50) 3.33 (02:50) 0 0 0 0 0
28-11-2019 12.9 (21:00) 7.5 (00:00) 10.2 -- (--) -- (--) -- 0 -- 0 0
27-11-2019 12.1 (13:40) 7.7 (00:00) 9.9 15.28 (00:20) 9.17 (00:10) 2.4 0 0 2.4 0
26-11-2019 15.8 (17:10) 11.4 (00:00) 13.6 24.17 (20:00) 10.28 (13:00) 0.8 0 0 0 0.8
25-11-2019 15.4 (13:10) 7.3 (00:00) 11.3 -- (--) -- (--) -- -- 0 0 0
24-11-2019 11.7 (23:59) 5.1 (00:00) 8.4 11.67 (21:50) 5.83 (17:50) 14.6 9.2 3.8 0 1.6
23-11-2019 -- (--) -- (--) -- -- (--) -- (--) -- -- -- 9.6 6
22-11-2019 13.1 (16:40) 7.7 (00:00) 10.4 -- (--) 15.83 (11:00) 2.2 0 1 1.2 0
21-11-2019 11.2 (15:20) 6.5 (00:00) 8.8 -- (--) -- (--) -- 0 0 0 --
20-11-2019 -- (--) -- (--) -- -- (--) -- (--) -- -- 0 -- 0
19-11-2019 -- (--) -- (--) -- -- (--) -- (--) -- -- 0 -- --
18-11-2019 5.8 (13:40) 2.3 (00:00) 4.1 -- (--) -- (--) -- 5.2 -- 0 0
17-11-2019 -- (--) -- (--) -- -- (--) -- (--) -- -- -- 1.4 23.2
16-11-2019 5 (14:00) 0.5 (00:00) 2.8 15 (11:30) 6.67 (12:00) 65 7.6 35.2 20.6 1.6
15-11-2019 3.9 (08:40) 0.1 (00:00) 2 -- (--) -- (--) -- 11.8 -- 4.6 2.8

Gráficas

Temp. máximas Temp. mínimas Temp. medias Precipitaciones Rachas de viento máximas Velocidades máximas media en intervalos de 10 minutos

Datos horarios

Fecha y hora oficial Temperatura (ºC) Velocidad del viento (km/h) Dirección del viento Racha (km/h) Dirección de racha Precipitación (mm) Presión (hPa) Tendencia (hPa) Humedad (%)
2019-12-14 23:00:00 11.6 11 Sudeste 33 Sur 0 -- -- 64
2019-12-14 22:00:00 11.5 19 Sur 45 Sur 0 -- -- 66
2019-12-14 21:00:00 11.8 16 Sudoeste 45 Sur 0 -- -- 67
2019-12-14 20:00:00 11.7 14 Sur 39 Sur 0 -- -- 67
2019-12-14 19:00:00 11.5 9 Sur 46 Sur 0 -- -- 66
2019-12-14 18:00:00 11.5 14 Sur 39 Sur 0 -- -- 67
2019-12-14 17:00:00 11.2 22 Sudeste 39 Sudeste 0 -- -- 67
2019-12-14 16:00:00 11.5 15 Sudeste 31 Sur 0 -- -- 67
2019-12-14 15:00:00 12.1 12 Sur 29 Sudeste 0 -- -- 61
2019-12-14 14:00:00 12.8 10 Sudeste 21 Sur 0.4 -- -- 55
2019-12-14 13:00:00 11.5 5 Sur 26 Sur 0 -- -- 63
2019-12-14 12:00:00 10.8 13 Sur 28 Sudeste 0 -- -- 68
2019-12-14 11:00:00 11.1 9 Sudeste 17 Sudeste 0 -- -- 67
2019-12-14 10:00:00 10.2 7 Sudeste 18 Sudeste 0 -- -- 69
2019-12-14 09:00:00 9.6 7 Sudeste 17 Sudeste 0 -- -- 67
2019-12-14 08:00:00 9.2 13 Sudeste 19 Sudeste 0 -- -- 67
2019-12-14 07:00:00 9.1 8 Sudeste 20 Sur 0.2 -- -- 70
2019-12-14 06:00:00 8.8 8 Sudeste 15 Sudeste 0 -- -- 75
2019-12-14 05:00:00 8 5 Sudeste 13 Sur 8.2 -- -- 77
2019-12-14 04:00:00 8.6 5 Sudeste 14 Sudeste 4 -- -- 76
2019-12-14 03:00:00 8.5 6 Sudeste 17 Este 19 -- -- 79
2019-12-14 02:00:00 8.1 6 Sudeste 15 Este 4.2 -- -- 85
2019-12-14 01:00:00 7.7 5 Sudeste 10 Nordeste 14.2 -- -- 93
2019-12-14 00:00:00 -- -- -- -- -- -- -- -- --
2019-12-13 23:00:00 -- -- -- -- -- -- -- -- --
2019-12-13 22:00:00 -- -- -- -- -- -- -- -- --
2019-12-13 21:00:00 -- -- -- -- -- -- -- -- --
2019-12-13 20:00:00 9.6 16 Noroeste 33 Norte 0 -- -- 100
2019-12-13 19:00:00 9.8 17 Noroeste 36 Norte 0 -- -- 100
2019-12-13 18:00:00 10.1 19 Norte 40 Noroeste 0.2 -- -- 100
2019-12-13 17:00:00 10.8 -- -- -- -- -- -- -- --
2019-12-13 16:00:00 11.7 14 Norte 40 Norte 0 -- -- 90
2019-12-13 15:00:00 12.1 18 Norte 46 Noroeste 0 -- -- 86
2019-12-13 14:00:00 12.1 23 Norte 58 Norte 0 -- -- 83
2019-12-13 13:00:00 11.7 22 Noroeste 52 Noroeste 0 -- -- 84
2019-12-13 12:00:00 11.6 22 Noroeste 67 Noroeste 0 -- -- 87
2019-12-13 11:00:00 11.3 29 Noroeste 62 Norte 4.8 -- -- 88
2019-12-13 10:00:00 10.9 24 Noroeste 94 Norte 1.6 -- -- 91
2019-12-13 09:00:00 10.4 28 Noroeste 58 Norte 1.6 -- -- 96
2019-12-13 08:00:00 10.6 31 Norte 67 Noroeste 0 -- -- 95
2019-12-13 07:00:00 11 26 Norte 50 Noroeste 0 -- -- 91
2019-12-13 06:00:00 10.8 20 Norte 50 Norte 0 -- -- 96
2019-12-13 05:00:00 10.6 21 Norte 54 Norte 0.2 -- -- 100
2019-12-13 04:00:00 10.7 17 Norte 38 Norte 2 -- -- 100
2019-12-13 03:00:00 10.5 30 Norte 58 Norte 5.6 -- -- 100
2019-12-13 02:00:00 10.1 22 Norte 59 Noroeste 5 -- -- 100
2019-12-13 01:00:00 10.1 30 Norte 53 Norte 9.4 -- -- 100
2019-12-13 00:00:00 10.2 26 Norte 54 Norte 26.6 -- -- 100
2019-12-12 23:00:00 10.1 23 Norte 50 Norte 0 -- -- 100
2019-12-12 22:00:00 9.9 24 Norte 47 Noroeste 0 -- -- 100
2019-12-12 21:00:00 9.6 21 Norte 66 Norte 0 -- -- 100
2019-12-12 20:00:00 9.6 25 Norte 59 Norte 0 -- -- 100
2019-12-12 19:00:00 9.5 29 Norte 53 Norte 23.8 -- -- 100
2019-12-12 18:00:00 8.6 22 Norte 55 Norte 9.8 -- -- 99
2019-12-12 17:00:00 8.5 20 Norte 57 Norte 10.6 -- -- 95
2019-12-12 16:00:00 8.4 9 Nordeste 36 Norte 9 -- -- 90
2019-12-12 15:00:00 7.9 16 Norte 49 Sudeste 3.6 -- -- 86
2019-12-12 14:00:00 7.3 19 Sudeste 57 Sudeste 2.8 -- -- 80
2019-12-12 13:00:00 7.5 20 Sudeste 51 Sudeste 0.8 -- -- 78
2019-12-12 12:00:00 7.6 23 Sudeste 40 Sudeste 0.6 -- -- 76
2019-12-12 11:00:00 6.9 12 Sudeste 34 Sudeste 0.8 -- -- 79
2019-12-12 10:00:00 6.3 13 Sudeste 32 Sudeste 2 -- -- 82
2019-12-12 09:00:00 6.4 8 Este 38 Sudeste 1.6 -- -- 81
2019-12-12 08:00:00 6.2 10 Sudeste 28 Sudeste 0.4 -- -- 81
2019-12-12 07:00:00 5.8 10 Sudeste 19 Sudeste 1.4 -- -- 84
2019-12-12 06:00:00 5.6 9 Sudeste 22 Sur 2.2 -- -- 85
2019-12-12 05:00:00 5.5 5 Nordeste 19 Nordeste 2 -- -- 87
2019-12-12 04:00:00 5.7 4 Nordeste 22 Norte 2 -- -- 87
2019-12-12 03:00:00 5.7 7 Norte 31 Norte 1.6 -- -- 88
2019-12-12 02:00:00 6.4 12 Norte 30 Norte 0.2 -- -- 82
2019-12-12 01:00:00 6 12 Norte 32 Norte 0.6 -- -- 87
2019-12-12 00:00:00 6.4 17 Norte 35 Norte 0.2 -- -- 82
2019-12-11 23:00:00 6.3 14 Norte 38 Noroeste 0 -- -- 83
2019-12-11 22:00:00 6.1 22 Norte 42 Norte 0 -- -- 86
2019-12-11 21:00:00 5.6 14 Norte 45 Norte 0 -- -- 90
2019-12-11 20:00:00 6 21 Norte 59 Norte 0 -- -- 88
2019-12-11 19:00:00 7.2 21 Noroeste 50 Norte 0 -- -- 70
2019-12-11 18:00:00 7.4 15 Norte 32 Noroeste 0 -- -- 62
2019-12-11 17:00:00 7.6 18 Norte 40 Norte 0 -- -- 58
2019-12-11 16:00:00 7.5 17 Norte 36 Norte 0 -- -- 56
2019-12-11 15:00:00 7.8 16 Noroeste 37 Noroeste 0 -- -- 58
2019-12-11 14:00:00 6.8 17 Norte 37 Noroeste 0 -- -- 69
2019-12-11 13:00:00 5.6 13 Norte 35 Norte 0 -- -- 81
2019-12-11 12:00:00 5 10 Norte 36 Norte 0 -- -- 90
2019-12-11 11:00:00 4.6 12 Norte 30 Noroeste 0 -- -- 96
2019-12-11 10:00:00 4.4 17 Noroeste 49 Norte 0 -- -- 99
2019-12-11 09:00:00 4.4 13 Noroeste 38 Norte 0 -- -- 99
2019-12-11 08:00:00 5.7 18 Noroeste 50 Norte 0 -- -- 98
2019-12-11 07:00:00 6.7 10 Norte 29 Norte 0 -- -- 96
2019-12-11 06:00:00 7.8 0 Calma 22 Noroeste 0 -- -- 81
2019-12-11 05:00:00 8.6 12 Noroeste 29 Noroeste 0 -- -- 67
2019-12-11 04:00:00 9.8 7 Sudeste 15 Sudeste 0 -- -- 67
2019-12-11 03:00:00 11 8 Sudeste 18 Sudeste 0 -- -- 62
2019-12-11 02:00:00 11.1 6 Sudeste 17 Sudeste 0 -- -- 61
2019-12-11 01:00:00 10.4 8 Sudeste 12 Sudeste 0 -- -- 62
2019-12-11 00:00:00 10.3 7 Sudeste 14 Sudeste 0 -- -- 63
2019-12-10 23:00:00 9.4 3 Sudeste 8 Sur 0 -- -- 73
2019-12-10 22:00:00 11.2 3 Norte 14 Sudeste 0 -- -- 65
2019-12-10 21:00:00 13.2 7 Sudeste 13 Sudeste 0 -- -- 59
2019-12-10 20:00:00 12.1 5 Sudeste 13 Sur 0 -- -- 53
2019-12-10 19:00:00 11.4 7 Sudeste 14 Sudeste 0 -- -- 51
2019-12-10 18:00:00 11.5 8 Sudeste 13 Sudeste 0 -- -- 50
2019-12-10 17:00:00 12.7 9 Sudeste 12 Sudeste 0 -- -- 52
2019-12-10 16:00:00 13.9 6 Sur 10 Sudeste 0 -- -- 43
2019-12-10 15:00:00 16.5 3 Sur 7 Sudeste 0 -- -- 33
2019-12-10 14:00:00 15.5 3 Noroeste 6 Noroeste 0 -- -- 29
2019-12-10 13:00:00 15.7 2 Sudoeste 10 Sur 0 -- -- 30
2019-12-10 12:00:00 14.3 4 Sur 13 Sudeste 0 -- -- 41
2019-12-10 11:00:00 10.5 7 Sudeste 15 Sudeste 0 -- -- 45
2019-12-10 10:00:00 8.8 9 Sudeste 15 Sur 0 -- -- 49
2019-12-10 09:00:00 6.8 6 Sudeste 18 Sudeste 0 -- -- 54
2019-12-10 08:00:00 5.4 8 Sur 16 Sudeste 0 -- -- 59
2019-12-10 07:00:00 5.3 4 Sudeste 12 Sur 0 -- -- 63
2019-12-10 06:00:00 4.7 3 Sudeste 11 Sudeste -- -- -- 69
2019-12-10 05:00:00 3.3 2 Sudeste 8 Sur 0 -- -- 83
2019-12-10 04:00:00 4.2 3 Sudeste 9 Sudeste 0 -- -- 92
2019-12-10 03:00:00 3.9 4 Sudeste 9 Sudeste 0 -- -- 94
2019-12-10 02:00:00 4.8 2 Sudeste 13 Sudeste 0 -- -- 93
2019-12-10 01:00:00 6.2 0 Calma 6 Sudeste 0 -- -- 97
2019-12-10 00:00:00 6.1 2 Sudeste 6 Sur 0 -- -- 96
2019-12-09 23:00:00 6.2 0 Calma 5 Este 0 -- -- 95
2019-12-09 22:00:00 6.1 2 Noroeste 4 Oeste 0 -- -- 95
2019-12-09 21:00:00 6.3 5 Noroeste 17 Noroeste 0 -- -- 93
2019-12-09 20:00:00 6.4 5 Norte 26 Norte 0 -- -- 97
2019-12-09 19:00:00 6.6 10 Noroeste 26 Noroeste 0 -- -- 97
2019-12-09 18:00:00 6.8 13 Noroeste 27 Noroeste 0 -- -- 96
2019-12-09 17:00:00 7 15 Noroeste 32 Noroeste 0 -- -- 91
2019-12-09 16:00:00 6.8 19 Norte 39 Noroeste 0 -- -- 96
2019-12-09 15:00:00 7.4 21 Norte 42 Norte 0 -- -- 88
2019-12-09 14:00:00 7.2 16 Noroeste 44 Noroeste 0 -- -- 92
2019-12-09 13:00:00 7.2 18 Norte 45 Noroeste 0 -- -- 94
2019-12-09 12:00:00 7.1 18 Norte 44 Norte 0 -- -- 92
2019-12-09 11:00:00 6.7 17 Norte 42 Noroeste 0 -- -- 94
2019-12-09 10:00:00 7.3 13 Norte 32 Norte 0 -- -- 85
2019-12-09 09:00:00 7.2 17 Norte 37 Noroeste 0 -- -- 82
2019-12-09 08:00:00 7 13 Noroeste 31 Noroeste 0 -- -- 83
2019-12-09 07:00:00 6.8 13 Noroeste 37 Norte 0 -- -- 85
2019-12-09 06:00:00 6.8 11 Noroeste 39 Norte 0 -- -- 88
2019-12-09 05:00:00 6.8 21 Noroeste 44 Noroeste 0 -- -- 88
2019-12-09 04:00:00 5.5 4 Noroeste 13 Norte 0 -- -- 94
2019-12-09 03:00:00 5.6 4 Este 15 Sudeste 0 -- -- 74
2019-12-09 02:00:00 6.6 6 Sudeste 17 Sudeste 0 -- -- 69
2019-12-09 01:00:00 6.6 6 Sudeste 17 Sudeste 0 -- -- 72
2019-12-09 00:00:00 6.4 6 Sudeste 20 Sudeste 0 -- -- 73
2019-12-08 23:00:00 6.7 9 Sudeste 17 Norte 0 -- -- 88
2019-12-08 22:00:00 7.5 6 Norte 15 Norte 0 -- -- 92
2019-12-08 21:00:00 7.6 4 Nordeste 18 Norte 0 -- -- 97
2019-12-08 20:00:00 7.7 4 Norte 24 Noroeste 0 -- -- 100
2019-12-08 19:00:00 7.9 15 Norte 26 Norte 0 -- -- 100
2019-12-08 18:00:00 7.9 0 Calma 22 Noroeste 0 -- -- 99
2019-12-08 17:00:00 8.3 17 Norte 36 Norte 0 -- -- 97
2019-12-08 16:00:00 10.6 14 Noroeste 28 Norte 0 -- -- 98
2019-12-08 15:00:00 11 9 Norte 21 Norte 0 -- -- 96
2019-12-08 14:00:00 11.4 8 Norte 18 Norte 0 -- -- 94
2019-12-08 13:00:00 11.6 3 Sudeste 8 Sudeste 0 -- -- 93
2019-12-08 12:00:00 11.9 3 Sur 8 Sudeste 0 -- -- 91
2019-12-08 11:00:00 12.5 4 Sudeste 10 Sudeste 0 -- -- 84
2019-12-08 10:00:00 12.5 4 Sudeste 10 Este 0 -- -- 82
2019-12-08 09:00:00 12.6 -- -- -- -- -- -- -- --
2019-12-08 08:00:00 11.1 3 Sur 8 Sur 0 -- -- 80
2019-12-08 07:00:00 11.2 4 Sudeste 12 Sur 0 -- -- 77
2019-12-08 06:00:00 11.1 8 Sudeste 15 Sudeste 0 -- -- 72
2019-12-08 05:00:00 9.2 10 Sudeste 15 Sudeste 0 -- -- 74
2019-12-08 04:00:00 8.6 8 Sudeste 12 Sudeste 0 -- -- 79
2019-12-08 03:00:00 7.9 0 Calma 10 Este 0 -- -- 80
2019-12-08 02:00:00 8 0 Calma 6 Sur 0 -- -- 80
2019-12-08 01:00:00 10.4 6 Sudeste 13 Sudeste 0 -- -- 71
2019-12-08 00:00:00 10.2 4 Sudeste 11 Sudeste 0 -- -- 74
2019-12-07 23:00:00 9.9 8 Sur 12 Sur 0 -- -- 78
2019-12-07 22:00:00 9.6 4 Sudeste 9 Este 0 -- -- 83
2019-12-07 21:00:00 9.5 4 Sudeste 15 Sudeste 0 -- -- 83
2019-12-07 20:00:00 10.1 6 Sudeste 12 Sudeste 0 -- -- 79
2019-12-07 19:00:00 8.7 5 Sudeste 15 Sudeste 0 -- -- 81
2019-12-07 18:00:00 8.6 2 Sudeste 9 Sudeste 0 -- -- 86
2019-12-07 17:00:00 10.2 4 Sudeste 9 Sudeste 0 -- -- 81
2019-12-07 16:00:00 13.5 3 Oeste 7 Noroeste 0 -- -- 70
2019-12-07 15:00:00 13.4 3 Noroeste 8 Noroeste 0 -- -- 72
2019-12-07 14:00:00 13.3 2 Oeste 15 Norte 0 -- -- 70
2019-12-07 13:00:00 13.2 5 Norte 9 Norte 0 -- -- 66
2019-12-07 12:00:00 12.4 0 Calma 10 Sur 0 -- -- 63
2019-12-07 11:00:00 9.1 3 Sur 7 Noroeste 0 -- -- 74
2019-12-07 10:00:00 9.4 6 Sudeste 15 Sudeste 0 -- -- 68
2019-12-07 09:00:00 6.8 8 Sudeste 14 Sudeste 0 -- -- 76
2019-12-07 08:00:00 6.8 7 Sudeste 13 Sudeste 0 -- -- 76
2019-12-07 07:00:00 5.9 3 Sudeste 9 Sur 0 -- -- 79
2019-12-07 06:00:00 7.2 3 Sudeste 13 Sudeste 0 -- -- 73
2019-12-07 05:00:00 7.4 5 Sudeste 14 Sudeste 0 -- -- 73
2019-12-07 04:00:00 8.1 5 Sudeste 11 Sudeste 0 -- -- 71
2019-12-07 03:00:00 9.1 4 Sudeste 14 Sudeste 0 -- -- 70
2019-12-07 02:00:00 8.1 5 Sudeste 17 Sudeste 0 -- -- 71
2019-12-07 01:00:00 6.3 3 Sudeste 8 Sur 0 -- -- 86
2019-12-07 00:00:00 7.1 3 Sur 7 Este 0 -- -- 86
2019-12-06 23:00:00 6.8 6 Sudeste 10 Sudeste 0 -- -- 87
2019-12-06 22:00:00 7 0 Calma 10 Sudeste 0 -- -- 86
2019-12-06 21:00:00 7.1 3 Nordeste 15 Sudeste 0 -- -- 87
2019-12-06 20:00:00 8 2 Sudoeste 8 Sudeste 0 -- -- 87
2019-12-06 19:00:00 7.4 3 Sudeste 10 Sudeste 0 -- -- 88
2019-12-06 18:00:00 7.6 4 Sudeste 8 Sudeste 0 -- -- 84
2019-12-06 17:00:00 9.6 3 Norte 14 Norte 0 -- -- 80
2019-12-06 16:00:00 12.1 5 Noroeste 10 Noroeste 0 -- -- 69
2019-12-06 15:00:00 13.3 2 Noroeste 6 Oeste 0 -- -- 62
2019-12-06 14:00:00 13.7 2 Noroeste 9 Norte 0 -- -- 57
2019-12-06 13:00:00 14.1 5 Noroeste 12 Noroeste 0 -- -- 56
2019-12-06 12:00:00 12.5 0 Calma 9 Este 0 -- -- 60
2019-12-06 11:00:00 11.4 6 Sudeste 14 Este 0 -- -- 63
2019-12-06 10:00:00 10.2 8 Sudeste 13 Sudeste 0 -- -- 65
2019-12-06 09:00:00 8.6 5 Sudeste 11 Sudeste 0 -- -- 70
2019-12-06 08:00:00 7.7 3 Sudeste 9 Sudeste 0 -- -- 75
2019-12-06 07:00:00 7.5 2 Norte 14 Sudeste 0 -- -- 76
2019-12-06 06:00:00 6.4 5 Sudeste 11 Sudeste 0 -- -- 83
2019-12-06 05:00:00 4.1 4 Sudeste 8 Sur 0 -- -- 87
2019-12-06 04:00:00 3.8 3 Sudeste 8 Sudeste 0 -- -- 89
2019-12-06 03:00:00 3.8 4 Sudeste 12 Sudeste 0 -- -- 91
2019-12-06 02:00:00 3.4 3 Sudeste 6 Sudeste 0 -- -- 96
2019-12-06 01:00:00 3.4 4 Sudeste 8 Este 0 -- -- 98
2019-12-06 00:00:00 3.8 2 Este 11 Este 0 -- -- 96
2019-12-05 23:00:00 3.8 0 Calma 4 Sudeste 0 -- -- 99
2019-12-05 22:00:00 4.1 0 Calma 9 Norte 0 -- -- 97
2019-12-05 21:00:00 5.6 3 Norte 9 Norte 0 -- -- 96
2019-12-05 20:00:00 6.4 0 Calma 15 Oeste 0 -- -- 100
2019-12-05 19:00:00 6.6 2 Oeste 8 Noroeste 0 -- -- 99
2019-12-05 18:00:00 6.9 0 Calma 9 Noroeste 0 -- -- 98
2019-12-05 17:00:00 7.1 5 Norte 13 Noroeste 0 -- -- 98
2019-12-05 16:00:00 7.2 8 Noroeste 17 Noroeste 0 -- -- 100
2019-12-05 15:00:00 7.1 9 Noroeste 17 Noroeste 0 -- -- 99
2019-12-05 14:00:00 7.3 10 Noroeste 18 Noroeste 0 -- -- 97
2019-12-05 13:00:00 7.3 10 Noroeste 22 Noroeste 0 -- -- 98
2019-12-05 12:00:00 7 17 Noroeste 28 Noroeste 0 -- -- 99
2019-12-05 11:00:00 6.1 3 Noroeste 6 Noroeste 0 -- -- 100
2019-12-05 10:00:00 5.5 6 Norte 16 Noroeste 0 -- -- 99
2019-12-05 09:00:00 6.4 9 Noroeste 22 Noroeste 0 -- -- 93
2019-12-05 08:00:00 6.4 12 Noroeste 32 Noroeste 0 -- -- 86
2019-12-05 07:00:00 6.3 15 Noroeste 27 Norte 0 -- -- 89
2019-12-05 06:00:00 5.9 4 Noroeste 14 Norte 0 -- -- 99
2019-12-05 05:00:00 6.1 7 Norte 13 Noroeste 0 -- -- 97
2019-12-05 04:00:00 6 6 Norte 13 Noroeste 0 -- -- 96
2019-12-05 03:00:00 6.2 7 Noroeste 17 Oeste 0 -- -- 95
2019-12-05 02:00:00 5.9 8 Norte 17 Noroeste 0 -- -- 98
2019-12-05 01:00:00 5.4 6 Noroeste 15 Noroeste 0 -- -- 100
2019-12-05 00:00:00 5.4 4 Noroeste 13 Noroeste 0 -- -- 100
2019-12-04 23:00:00 5.3 4 Noroeste 9 Noroeste 0 -- -- 100
2019-12-04 22:00:00 5.5 5 Noroeste 10 Noroeste 0 -- -- 98
2019-12-04 21:00:00 5.5 3 Norte 7 Noroeste 0 -- -- 98
2019-12-04 20:00:00 5.4 0 Calma 5 Nordeste 0 -- -- 94
2019-12-04 19:00:00 5.4 2 Sur 12 Norte 0 -- -- 88
2019-12-04 18:00:00 5.3 0 Calma 12 Noroeste 0 -- -- 89
2019-12-04 17:00:00 5.9 6 Norte 13 Noroeste 0 -- -- 85
2019-12-04 16:00:00 7.6 5 Noroeste 14 Norte 0 -- -- 60
2019-12-04 15:00:00 9.3 5 Noroeste 15 Noroeste 0 -- -- 53
2019-12-04 14:00:00 8.6 10 Noroeste 14 Noroeste 0 -- -- 70
2019-12-04 13:00:00 9.3 6 Noroeste 9 Noroeste 0 -- -- 65
2019-12-04 12:00:00 9.3 0 Calma 5 Este 0 -- -- 64
2019-12-04 11:00:00 5.7 0 Calma 9 Sur 0 -- -- 79
2019-12-04 10:00:00 5.8 4 Sudeste 14 Sudeste 0 -- -- 76
2019-12-04 09:00:00 4.9 9 Sudeste 14 Sudeste 0 -- -- 78
2019-12-04 08:00:00 4.8 -- -- -- -- -- -- -- --
2019-12-04 07:00:00 5.1 5 Sudeste 9 Sudeste 0 -- -- 75
2019-12-04 06:00:00 4.4 2 Sudeste 10 Sur 0 -- -- 77
2019-12-04 05:00:00 4.6 2 Este 8 Sur 0 -- -- 76
2019-12-04 04:00:00 4.6 4 Sudeste 8 Este 0 -- -- 76
2019-12-04 03:00:00 4.5 3 Nordeste 30 Oeste 0 -- -- 76
2019-12-04 02:00:00 8.4 11 Sur 39 Sur 0 -- -- 60
2019-12-04 01:00:00 5.6 12 Noroeste 43 Sudoeste 0 -- -- 71
2019-12-04 00:00:00 1.9 5 Oeste 28 Oeste 0 -- -- 89
2019-12-03 23:00:00 4.5 11 Norte 30 Oeste 0 -- -- 76
2019-12-03 22:00:00 0.1 0 Calma 10 Sudeste 0 -- -- 94
2019-12-03 21:00:00 0.3 -- -- -- -- -- -- -- --
2019-12-03 20:00:00 0.4 3 Nordeste 6 Sur 0 -- -- 94
2019-12-03 19:00:00 0.9 0 Calma 10 Sudeste 32 -- -- 93
2019-12-03 18:00:00 2.2 4 Sudeste 8 Sudeste 2 -- -- 88
2019-12-03 17:00:00 4 3 Noroeste 5 Norte 0.2 -- -- 85
2019-12-03 16:00:00 4.5 4 Noroeste 12 Noroeste 0 -- -- 82
2019-12-03 15:00:00 5.7 8 Noroeste 13 Noroeste 0 -- -- 77
2019-12-03 14:00:00 5.1 5 Oeste 12 Noroeste 0 -- -- 76
2019-12-03 13:00:00 3.9 8 Noroeste 15 Norte 0 -- -- 90
2019-12-03 12:00:00 3.5 9 Noroeste 13 Norte 0 -- -- 94
2019-12-03 11:00:00 3 5 Norte 13 Noroeste 0 -- -- 91
2019-12-03 10:00:00 2.5 6 Noroeste 12 Norte 0 -- -- 98
2019-12-03 09:00:00 2.3 6 Norte 13 Norte 0 -- -- 98
2019-12-03 08:00:00 2.3 6 Norte 15 Noroeste 0 -- -- 99
2019-12-03 07:00:00 2.4 7 Noroeste 15 Noroeste 0 -- -- 99
2019-12-03 06:00:00 2.4 4 Norte 15 Noroeste 0 -- -- 99
2019-12-03 05:00:00 2.3 6 Noroeste 18 Noroeste 0 -- -- 98
2019-12-03 04:00:00 2.6 7 Noroeste 21 Noroeste 0 -- -- 95
2019-12-03 03:00:00 2.7 9 Noroeste 25 Noroeste 0 -- -- 95
2019-12-03 02:00:00 2.8 13 Noroeste 26 Noroeste 0 -- -- 96
2019-12-03 01:00:00 3.1 6 Norte 13 Noroeste 0 -- -- 93
2019-12-03 00:00:00 3.1 6 Noroeste 14 Noroeste 0 -- -- 95
2019-12-02 23:00:00 3.2 9 Noroeste 21 Noroeste 0 -- -- 95
2019-12-02 22:00:00 3.4 9 Noroeste 17 Noroeste 0 -- -- 93
2019-12-02 21:00:00 3.4 11 Noroeste 20 Noroeste 0 -- -- 95
2019-12-02 20:00:00 3.2 10 Noroeste 17 Noroeste 0 -- -- 98
2019-12-02 19:00:00 3 8 Noroeste 18 Noroeste 0 -- -- 96
2019-12-02 18:00:00 3.4 4 Norte 19 Noroeste 0 -- -- 85
2019-12-02 17:00:00 3.7 10 Noroeste 22 Noroeste 0 -- -- 94
2019-12-02 16:00:00 4 8 Noroeste 21 Norte 0 -- -- 93
2019-12-02 15:00:00 4.3 6 Noroeste 28 Noroeste 0 -- -- 97
2019-12-02 14:00:00 4.9 8 Norte 26 Noroeste 0 -- -- 96
2019-12-02 13:00:00 5.3 9 Noroeste 19 Norte 0 -- -- 96
2019-12-02 12:00:00 5.4 9 Noroeste 21 Noroeste 0 -- -- 97
2019-12-02 11:00:00 5.3 8 Norte 28 Noroeste 14 -- -- 96
2019-12-02 10:00:00 5.8 11 Noroeste 24 Norte 0.4 -- -- 95
2019-12-02 09:00:00 5.7 4 Norte 26 Noroeste 0 -- -- 95
2019-12-02 08:00:00 5.7 6 Noroeste 19 Noroeste 0 -- -- 94
2019-12-02 07:00:00 5.3 9 Noroeste 25 Oeste 0 -- -- 97
2019-12-02 06:00:00 5.8 10 Noroeste 32 Norte 0 -- -- 94
2019-12-02 05:00:00 5.8 18 Noroeste 36 Noroeste 0 -- -- 91
2019-12-02 04:00:00 4.3 2 Este 6 Noroeste 0 -- -- 99
2019-12-02 03:00:00 4.4 3 Sudeste 4 Este 0 -- -- 97
2019-12-02 02:00:00 4.4 2 Sudeste 5 Este -- -- -- 95
2019-12-02 01:00:00 4.1 5 Sudeste 6 Sudeste 0.6 -- -- 95
2019-12-02 00:00:00 3.8 4 Sudeste 12 Sudeste 0 -- -- 94
2019-12-01 23:00:00 3.6 5 Sudeste 10 Sudeste 0 -- -- 93
2019-12-01 22:00:00 4.2 6 Sudeste 9 Sudeste 0 -- -- 92
2019-12-01 21:00:00 4.9 2 Este 8 Este 0 -- -- 95
2019-12-01 20:00:00 5.6 4 Sudeste 8 Este 0 -- -- 90
2019-12-01 19:00:00 5.9 5 Norte 13 Noroeste 0 -- -- 94
2019-12-01 18:00:00 7 5 Norte 9 Norte 0 -- -- 91
2019-12-01 17:00:00 8.1 2 Noroeste 10 Noroeste 0 -- -- 86
2019-12-01 16:00:00 8.5 5 Noroeste 9 Noroeste 0 -- -- 84
2019-12-01 15:00:00 8.4 0 Calma 9 Noroeste 0 -- -- 82
2019-12-01 14:00:00 8.6 5 Noroeste 13 Noroeste 0 -- -- 76
2019-12-01 13:00:00 9 8 Noroeste 14 Noroeste 0 -- -- 72
2019-12-01 12:00:00 9.2 7 Norte 15 Noroeste 0 -- -- 74
2019-12-01 11:00:00 8.6 3 Sur 11 Sur 0 -- -- 74
2019-12-01 10:00:00 7.7 6 Sudeste 15 Sur 0 -- -- 76
2019-12-01 09:00:00 7.5 5 Sudeste 17 Sur 0 -- -- 79
2019-12-01 08:00:00 7.4 3 Sudeste 25 Sudeste 0.2 -- -- 77
2019-12-01 07:00:00 6.8 3 Sudeste 11 Sur 0 -- -- 84
2019-12-01 06:00:00 7.8 4 Sudeste 9 Este 0 -- -- 74
2019-12-01 05:00:00 8.4 6 Sur 18 Sur 0 -- -- 66
2019-12-01 04:00:00 7.7 6 Sudoeste 21 Sudoeste 0 -- -- 65
2019-12-01 03:00:00 7.4 5 Este 12 Sudeste 0 -- -- 67
2019-12-01 02:00:00 7.7 5 Este 13 Sudeste 0 -- -- 69
2019-12-01 01:00:00 7.6 7 Sudeste 18 Sur 0 -- -- 65
2019-12-01 00:00:00 7 7 Sudeste 15 Sur 0 -- -- 68
2019-11-30 23:00:00 5.1 3 Sudeste 9 Sur 0 -- -- 82
2019-11-30 22:00:00 4.8 2 Sur 8 Este 0 -- -- 87
2019-11-30 21:00:00 5.7 2 Sudeste 14 Sudeste 0 -- -- 85
2019-11-30 20:00:00 6.8 5 Sudeste 13 Sudeste 0 -- -- 85
2019-11-30 19:00:00 7.3 4 Sudeste 13 Sudeste 0 -- -- 79
2019-11-30 18:00:00 7 3 Sur 10 Sudeste 0 -- -- 81
2019-11-30 17:00:00 7.4 4 Sudeste 17 Noroeste 0.2 -- -- 84
2019-11-30 16:00:00 8 10 Norte 15 Norte 1.2 -- -- 90
2019-11-30 15:00:00 8.1 2 Norte 8 Norte 3 -- -- 93
2019-11-30 14:00:00 8.2 0 Calma 8 Sur 3.2 -- -- 96
2019-11-30 13:00:00 8.2 3 Sudeste 8 Sudeste 4.2 -- -- 97
2019-11-30 12:00:00 8.2 3 Sur 6 Sur 4.6 -- -- 97
2019-11-30 11:00:00 8 5 Norte 28 Norte 4.4 -- -- 95
2019-11-30 10:00:00 10 8 Norte 41 Sudeste 4.6 -- -- 96
2019-11-30 09:00:00 13.9 15 Este 43 Sudeste 0 -- -- 77
2019-11-30 08:00:00 14 12 Sudeste 37 Noroeste 0 -- -- 73
2019-11-30 07:00:00 14.3 15 Sudeste 45 Sudeste 0.2 -- -- 73
2019-11-30 06:00:00 13.9 13 Sudeste 42 Sudeste 0.2 -- -- 77
2019-11-30 05:00:00 14.8 14 Sudeste 44 Sudeste 0 -- -- 71
2019-11-30 04:00:00 15.5 11 Sudeste 32 Sudeste 0 -- -- 64
2019-11-30 03:00:00 14.2 9 Sudeste 25 Sudeste 0 -- -- 67
2019-11-30 02:00:00 13.2 8 Sudeste 24 Sudoeste 0 -- -- 57
2019-11-30 01:00:00 11.5 7 Sudeste 15 Sur 0 -- -- 60
2019-11-30 00:00:00 10.1 5 Sudeste 12 Este 0 -- -- 63
2019-11-29 23:00:00 10.5 5 Sudeste 16 Este 0 -- -- 56
2019-11-29 22:00:00 9.8 6 Sudeste 14 Sudeste 0 -- -- 62
2019-11-29 21:00:00 8.9 4 Este 8 Este 0 -- -- 68
2019-11-29 20:00:00 7.6 2 Sudeste 8 Sudeste 0 -- -- 84
2019-11-29 19:00:00 7.6 3 Sudeste 5 Este 0 -- -- 93
2019-11-29 18:00:00 8.3 0 Calma 9 Sur 0 -- -- 92
2019-11-29 17:00:00 9.7 3 Sudeste 9 Sur 0 -- -- 86
2019-11-29 16:00:00 13.1 0 Calma 6 Noroeste 0 -- -- 74
2019-11-29 15:00:00 13.7 5 Noroeste 10 Noroeste 0 -- -- 74
2019-11-29 14:00:00 13.4 4 Noroeste 10 Norte 0 -- -- 71
2019-11-29 13:00:00 12.4 7 Noroeste 12 Noroeste 0 -- -- 75
2019-11-29 12:00:00 12.3 5 Este 10 Sur 0 -- -- 68
2019-11-29 11:00:00 10.2 0 Calma 8 Sudeste 0 -- -- 86
2019-11-29 10:00:00 9.2 0 Calma 4 Sur 0 -- -- 97
2019-11-29 09:00:00 8.9 0 Calma 14 Norte 0 -- -- 96
2019-11-29 08:00:00 9.2 5 Norte 19 Noroeste 0 -- -- 96
2019-11-29 07:00:00 9.2 8 Norte 14 Noroeste 0 -- -- 98
2019-11-29 06:00:00 9.5 9 Norte 16 Noroeste 0 -- -- 96
2019-11-29 05:00:00 9.6 3 Noroeste 12 Norte 0 -- -- 95
2019-11-29 04:00:00 9.8 6 Nordeste 19 Norte 0 -- -- 94
2019-11-29 03:00:00 9.8 10 Norte 22 Norte 0 -- -- 96
2019-11-29 02:00:00 9.6 2 Sur 14 Norte 0 -- -- 98
2019-11-29 01:00:00 9.5 3 Norte 5 Norte 0 -- -- 99
2019-11-29 00:00:00 9.5 0 Calma 17 Noroeste 0 -- -- 98
2019-11-28 23:00:00 10.8 3 Noroeste 34 Sudeste 0 -- -- 92
2019-11-28 22:00:00 12.2 10 Este 32 Nordeste 0 -- -- 79
2019-11-28 21:00:00 12.9 14 Sudeste 35 Este 0 -- -- 70
2019-11-28 20:00:00 12.8 13 Sudeste 40 Sur 0 -- -- 72
2019-11-28 19:00:00 11.6 7 Este 20 Sudeste 0 -- -- 83
2019-11-28 18:00:00 8.1 5 Sudeste 15 Sudeste 0 -- -- 95
2019-11-28 17:00:00 7.6 4 Noroeste 12 Noroeste 0 -- -- 98
2019-11-28 16:00:00 8.3 5 Noroeste 21 Norte 0 -- -- 99
2019-11-28 15:00:00 9.9 13 Noroeste 28 Sudeste 0 -- -- 93
2019-11-28 14:00:00 9.2 6 Sudoeste 13 Sur 0 -- -- 99
2019-11-28 13:00:00 9.3 4 Noroeste 18 Nordeste 0 -- -- 96
2019-11-28 12:00:00 8.9 7 Norte 14 Este 0 -- -- 96
2019-11-28 11:00:00 8.8 3 Noroeste 9 Norte 0 -- -- 95
2019-11-28 10:00:00 8.7 0 Calma 6 Noroeste 0 -- -- 93
2019-11-28 09:00:00 -- -- -- -- -- -- -- -- --
2019-11-28 08:00:00 9.2 0 Calma 13 Norte 0 -- -- 87
2019-11-28 07:00:00 9.8 4 Este 24 Sudeste 0 -- -- 81
2019-11-28 06:00:00 9.3 8 Sur 19 Sudeste 0 -- -- 80
2019-11-28 05:00:00 9.8 6 Sudeste 27 Este 0 -- -- 80
2019-11-28 04:00:00 10 11 Norte 38 Este 0 -- -- 80
2019-11-28 03:00:00 11 21 Sudeste 35 Sudeste 0 -- -- 70
2019-11-28 02:00:00 10.7 14 Sudeste 32 Sudeste 0 -- -- 69
2019-11-28 01:00:00 10.4 13 Sudeste 36 Sudeste 0 -- -- 72
2019-11-28 00:00:00 10.4 14 Sudeste 29 Sudeste 0 -- -- 72
2019-11-27 23:00:00 10.7 8 Sudeste 37 Sudeste 0 -- -- 69
2019-11-27 22:00:00 10.7 17 Este 37 Este 0 -- -- 68
2019-11-27 21:00:00 9.6 4 Sudeste 10 Sudeste 0 -- -- 74
2019-11-27 20:00:00 8.5 6 Sudeste 22 Sudeste 0 -- -- 84
2019-11-27 19:00:00 9 5 Sur 16 Este 0 -- -- 85
2019-11-27 18:00:00 8.3 4 Este 13 Sudeste 0 -- -- 87
2019-11-27 17:00:00 8.1 5 Sudeste 10 Sur 0.6 -- -- 90
2019-11-27 16:00:00 9.1 12 Norte 36 Sudeste 1.8 -- -- 83
2019-11-27 15:00:00 11.5 17 Sudeste 37 Este 0 -- -- 66
2019-11-27 14:00:00 11.8 13 Sudeste 32 Sudeste 0 -- -- 63
2019-11-27 06:00:00 -- -- -- -- -- -- -- -- --
2019-11-27 05:00:00 10.2 18 Sudeste 42 Sudeste 0 -- -- 61
2019-11-27 04:00:00 10.3 12 Sudeste 34 Sudeste 0 -- -- 57
2019-11-27 03:00:00 10.3 14 Sur 36 Sudeste 0 -- -- 57
2019-11-27 02:00:00 10.7 23 Sudeste 42 Sudeste 0 -- -- 55
2019-11-27 01:00:00 11 27 Sudeste 55 Sudeste 0 -- -- 55
2019-11-27 00:00:00 11.4 27 Sudeste 63 Sudeste 0 -- -- 58
2019-11-26 23:00:00 12.3 24 Sudeste 60 Sudeste 0 -- -- 60
2019-11-26 22:00:00 12.6 19 Sudeste 52 Sudeste 0 -- -- 71
2019-11-26 21:00:00 12.7 17 Nordeste 87 Este 0.8 -- -- 77
2019-11-26 20:00:00 14.3 32 Sudeste 87 Sudeste 0 -- -- 65
2019-11-26 19:00:00 14.6 24 Sudeste 84 Sudeste 0 -- -- 65
2019-11-26 18:00:00 15.3 24 Sudeste 67 Sudeste 0 -- -- 63
2019-11-26 17:00:00 15.7 25 Sudeste 65 Sudeste 0 -- -- 65
2019-11-26 16:00:00 14.7 26 Sudeste 84 Sudeste 0 -- -- 74
2019-11-26 15:00:00 15.5 21 Sudeste 54 Sudeste 0 -- -- 65
2019-11-26 14:00:00 15.5 30 Sudeste 68 Sudeste 0 -- -- 64
2019-11-26 13:00:00 14.9 37 Sudeste 62 Sudeste 0 -- -- 70
2019-11-26 12:00:00 14.9 26 Sudeste 72 Sudeste 0 -- -- 71
2019-11-26 11:00:00 14.8 26 Sudeste 53 Sudeste 0 -- -- 70
2019-11-26 10:00:00 14.9 16 Sudeste 40 Sudeste 0 -- -- 68
2019-11-26 09:00:00 14.4 17 Sudeste 43 Sudeste 0 -- -- 68
2019-11-26 08:00:00 15.1 16 Sudeste 48 Sudeste 0 -- -- 65
2019-11-26 07:00:00 14.4 14 Sur 47 Sur 0 -- -- 67
2019-11-26 06:00:00 14.3 15 Sur 42 Sudeste 0 -- -- 66
2019-11-26 05:00:00 14.4 15 Sur 41 Sur 0 -- -- 62
2019-11-26 04:00:00 13.9 16 Sur 37 Sur 0 -- -- 61
2019-11-26 03:00:00 14.2 18 Sudeste 41 Sudeste 0 -- -- 51
2019-11-26 02:00:00 13.9 15 Sudeste 31 Sudeste 0 -- -- 50
2019-11-26 01:00:00 12.4 7 Sur 26 Sur 0 -- -- 61
2019-11-26 00:00:00 12 4 Este 21 Sudeste 0 -- -- 56
2019-11-25 23:00:00 11.6 10 Sudeste 19 Este 0 -- -- 55
2019-11-25 22:00:00 7.6 2 Sudeste 7 Este 0 -- -- 79
2019-11-25 21:00:00 7.8 3 Sudeste 7 Sudeste 0 -- -- 99
2019-11-25 20:00:00 9 2 Nordeste 7 Este 0 -- -- 99
2019-11-25 19:00:00 9.6 0 Calma 6 Este 0 -- -- 98
2019-11-25 18:00:00 10.1 3 Noroeste 6 Noroeste 0 -- -- 98
2019-11-25 17:00:00 10.7 3 Noroeste 9 Noroeste 0 -- -- 96
2019-11-25 16:00:00 11.3 4 Noroeste 15 Noroeste 0 -- -- 93
2019-11-25 15:00:00 12.6 6 Noroeste 12 Norte 0 -- -- 87
2019-11-25 14:00:00 13.3 5 Noroeste 21 Noroeste 0 -- -- 80
2019-11-25 13:00:00 15 4 Sur 20 Sudeste 0 -- -- 63
2019-11-25 12:00:00 13.8 13 Sudeste 22 Sur 0 -- -- 66
2019-11-25 11:00:00 12.5 11 Sudeste 24 Sudeste 0 -- -- 69
2019-11-25 10:00:00 11.3 10 Sur 22 Sur 0 -- -- 73
2019-11-25 09:00:00 10.9 12 Sur 21 Sur 0 -- -- 74
2019-11-25 08:00:00 9.9 3 Norte 15 Sur 0 -- -- 79
2019-11-25 07:00:00 10.6 9 Sudeste 21 Sudeste 0 -- -- 76
2019-11-25 06:00:00 10.5 9 Sudeste 22 Sur 0 -- -- 75
2019-11-25 05:00:00 11.2 7 Sur 20 Sur 0 -- -- 71
2019-11-25 04:00:00 11.4 6 Sur 23 Sur 0 -- -- 69
2019-11-25 03:00:00 10.6 7 Sur 21 Sur 0 -- -- 74
2019-11-25 02:00:00 10.9 9 Sur 17 Sur 0 -- -- 72
2019-11-25 01:00:00 -- -- -- -- -- -- -- -- --
2019-11-25 00:00:00 11.7 9 Sur 28 Este 0 -- -- 69
2019-11-24 23:00:00 11.3 9 Sudeste 34 Sudeste 0 -- -- 71
2019-11-24 22:00:00 11.1 12 Sur 42 Sudeste 0 -- -- 70
2019-11-24 21:00:00 10.1 14 Sur 35 Sur 1.4 -- -- 79
2019-11-24 20:00:00 9.9 14 Sudeste 32 Sudeste 0 -- -- 77
2019-11-24 19:00:00 9.4 10 Sudeste 30 Sur 0.2 -- -- 71
2019-11-24 18:00:00 9.1 18 Sur 33 Sur 0 -- -- 71
2019-11-24 17:00:00 10 15 Sur 27 Sur 0 -- -- 59
2019-11-24 16:00:00 9.7 9 Sur 26 Sur 0 -- -- 56
2019-11-24 15:00:00 10.2 9 Sur 22 Sur 0 -- -- 52
2019-11-24 14:00:00 9.9 9 Sur 22 Sur 0 -- -- 56
2019-11-24 13:00:00 9.6 5 Sudeste 18 Sudeste 0 -- -- 64
2019-11-24 12:00:00 8.2 4 Sudeste 10 Sudeste 0 -- -- 69
2019-11-24 11:00:00 7.2 3 Sudeste 8 Sudeste 0 -- -- 81
2019-11-24 10:00:00 6 3 Sudeste 8 Sudeste 0 -- -- 93
2019-11-24 09:00:00 5.5 2 Sur 6 Nordeste 0.4 -- -- 96
2019-11-24 08:00:00 5.7 4 Norte 18 Norte 1 -- -- 95
2019-11-24 07:00:00 5.6 9 Norte 27 Norte 2.4 -- -- 96
2019-11-24 06:00:00 5.7 11 Norte 21 Norte 1.4 -- -- 96
2019-11-24 05:00:00 6 14 Norte 25 Norte 0.2 -- -- 92
2019-11-24 04:00:00 5.5 11 Norte 33 Noroeste 1.8 -- -- 96
2019-11-24 03:00:00 5.7 10 Norte 34 Norte 1.8 -- -- 93
2019-11-24 02:00:00 5.7 12 Norte 26 Noroeste 1.6 -- -- 93
2019-11-24 01:00:00 5.2 12 Norte 33 Noroeste 2.4 -- -- 96
2019-11-24 00:00:00 5.1 15 Norte 52 Noroeste 3.4 -- -- 96
2019-11-23 23:00:00 5.6 15 Norte 36 Norte 1.6 -- -- 91
2019-11-23 22:00:00 6 14 Norte 33 Noroeste 0.2 -- -- 87
2019-11-23 21:00:00 5.7 13 Norte 43 Norte 0.4 -- -- 89
2019-11-23 20:00:00 5.9 19 Norte 40 Norte 0 -- -- 94
2019-11-23 19:00:00 5.2 18 Norte 33 Noroeste 0.4 -- -- 100
2019-11-23 18:00:00 4.8 15 Norte 42 Norte 4 -- -- 100
2019-11-23 17:00:00 5.1 15 Norte 37 Norte 0.4 -- -- 100
2019-11-23 16:00:00 5.3 17 Noroeste 39 Norte 1.6 -- -- 100
2019-11-23 15:00:00 5.7 20 Noroeste 53 Norte 0.8 -- -- 100
2019-11-23 14:00:00 5.5 24 Noroeste 47 Noroeste 0.8 -- -- 100
2019-11-23 13:00:00 5.1 20 Noroeste 55 Noroeste 2 -- -- 100
2019-11-23 12:00:00 5.1 29 Noroeste 66 Noroeste 1.6 -- -- 100
2019-11-23 11:00:00 4.6 20 Noroeste 60 Norte 2.4 -- -- 100
2019-11-23 10:00:00 4.4 24 Noroeste 64 Noroeste 3 -- -- 100
2019-11-23 09:00:00 4.6 27 Noroeste 68 Norte 4.6 -- -- 100
2019-11-23 08:00:00 4.5 25 Noroeste 62 Noroeste 8.6 -- -- 100
2019-11-23 07:00:00 -- -- -- -- -- -- -- -- --
2019-11-23 06:00:00 -- -- -- -- -- -- -- -- --
2019-11-23 05:00:00 -- -- -- -- -- -- -- -- --
2019-11-23 04:00:00 6.8 -- -- -- -- 4.2 -- -- --
2019-11-23 03:00:00 8 7 Norte 42 Sudeste 2.6 -- -- 79
2019-11-23 02:00:00 9.3 13 Sudeste 45 Sudeste 0 -- -- 69
2019-11-23 01:00:00 9.6 17 Sudeste 54 Sur 0 -- -- 68
2019-11-23 00:00:00 10 -- -- -- -- 0 -- -- 68
2019-11-22 23:00:00 10.3 24 Sudeste 84 Sudeste 0 -- -- 64
2019-11-22 22:00:00 9.9 20 Sudeste 50 Sudeste 0 -- -- 66
2019-11-22 21:00:00 9.8 13 Sudeste 43 Sudeste 0 -- -- 65
2019-11-22 20:00:00 10.2 15 Sudeste 44 Sudeste 0 -- -- 68
2019-11-22 19:00:00 10.8 15 Sudeste 41 Sudeste 0 -- -- 65
2019-11-22 18:00:00 12 18 Sudeste 53 Este 0 -- -- 66
2019-11-22 17:00:00 13 15 Sudeste 56 Sudeste 0 -- -- 67
2019-11-22 16:00:00 12.6 23 Sudeste 61 Sudeste 0 -- -- 70
2019-11-22 15:00:00 12.2 30 Sudeste 87 Sudeste 0 -- -- 72
2019-11-22 14:00:00 11.4 24 Sudeste 111 Este 0.6 -- -- 72
2019-11-22 13:00:00 11.9 53 Sudeste 100 Sudeste 0.6 -- -- 70
2019-11-22 12:00:00 10.6 36 Sudeste -- -- 0.4 -- -- 72
2019-11-22 11:00:00 10.8 57 Sudeste 121 Sudeste 0.6 -- -- 67
2019-11-22 10:00:00 9.2 22 Sudeste 97 Sudeste 0 -- -- 70
2019-11-22 09:00:00 9.1 31 Sudeste 68 Sudeste 0 -- -- 70
2019-11-22 08:00:00 8.7 27 Sudeste 61 Sudeste 0 -- -- 73
2019-11-22 07:00:00 8.6 20 Sudeste 62 Sudeste 0 -- -- 70
2019-11-22 06:00:00 8.6 27 Sudeste 66 Sudeste 0 -- -- 68
2019-11-22 05:00:00 8.1 29 Sudeste 80 Sudeste 0 -- -- 72
2019-11-22 04:00:00 8.1 19 Sudeste 53 Sudoeste 0 -- -- 71
2019-11-22 03:00:00 8.5 15 Sudeste 49 Sudeste 0 -- -- 66
2019-11-22 02:00:00 7.9 12 Sudeste 38 Sur 0 -- -- 66
2019-11-22 01:00:00 7.9 7 Sur 38 Sudeste 0 -- -- 63
2019-11-22 00:00:00 8 10 Sudeste 34 Sudeste 0 -- -- 64
2019-11-21 23:00:00 8 12 Sur 33 Sur 0 -- -- 63
2019-11-21 22:00:00 8.2 8 Sudeste 18 Sudeste 0 -- -- 57
2019-11-21 21:00:00 7.1 -- -- -- -- -- -- -- --
2019-11-21 20:00:00 7.3 6 Sudeste 21 Sudeste 0 -- -- 63
2019-11-21 19:00:00 7.7 5 Sudeste 21 Sudeste 0 -- -- 61
2019-11-21 18:00:00 8 7 Sudeste 21 Sudeste 0 -- -- 58
2019-11-21 17:00:00 8.9 4 Sudeste 23 Sur 0 -- -- 57
2019-11-21 16:00:00 10.6 9 Sudeste 22 Sudeste 0 -- -- 53
2019-11-21 15:00:00 10.8 6 Sur 16 Sudoeste 0 -- -- 51
2019-11-21 14:00:00 10.5 9 Sur 21 Sudeste 0 -- -- 53
2019-11-21 13:00:00 10.5 5 Sudeste 22 Sudeste 0 -- -- 55
2019-11-21 12:00:00 8.9 10 Sudeste 28 Sudeste 0 -- -- 61
2019-11-21 11:00:00 8.8 8 Sur 24 Sudeste 0 -- -- 66
2019-11-21 10:00:00 7.3 10 Sudeste 24 Sudeste 0 -- -- 72
2019-11-21 09:00:00 6.9 5 Sudeste 30 Sudeste 0 -- -- 73
2019-11-21 08:00:00 7 10 Sudeste 24 Sudeste 0 -- -- 72
2019-11-21 07:00:00 6.5 8 Sudeste 20 Sudoeste 0 -- -- 73
2019-11-21 06:00:00 6.8 8 Sur 26 Sudeste 0 -- -- 74
2019-11-21 05:00:00 7 8 Sudeste 24 Oeste 0 -- -- 76
2019-11-21 04:00:00 7.4 12 Nordeste 30 Sudeste 0 -- -- 75
2019-11-21 03:00:00 7.5 11 Sudeste 32 Este 0 -- -- 71
2019-11-21 02:00:00 7.6 10 Sudeste 32 Sudeste 0 -- -- 72
2019-11-21 01:00:00 7.5 9 Sudeste 21 Sur 0 -- -- 74
2019-11-21 00:00:00 7.3 6 Sur 21 Sur 0 -- -- 73
2019-11-20 23:00:00 7.5 6 Sur 27 Sudeste 0 -- -- 69
2019-11-20 22:00:00 7.5 12 Sudeste 30 Sudoeste 0 -- -- 74
2019-11-20 21:00:00 7.4 3 Norte 31 Sudeste 0 -- -- 74
2019-11-20 20:00:00 7.6 9 Sur 31 Sudeste 0 -- -- 73
2019-11-20 19:00:00 7.8 11 Sur 27 Sudeste 0 -- -- 70
2019-11-20 18:00:00 8 9 Sur 28 Oeste 0 -- -- 71
2019-11-20 17:00:00 7.9 8 Sudeste 30 Sudeste 0 -- -- 74
2019-11-20 16:00:00 7.9 12 Sur 37 Sudeste 0 -- -- 74
2019-11-20 15:00:00 8.1 5 Sur 31 Sur 0 -- -- 75
2019-11-20 14:00:00 8.5 14 Sur 32 Sur 0 -- -- 72
2019-11-20 13:00:00 9.4 -- -- -- -- -- -- -- --
2019-11-20 12:00:00 9.3 15 Sudeste 35 Sudeste 0 -- -- 67
2019-11-20 11:00:00 8.9 12 Sudeste 23 Sudeste 0 -- -- 68
2019-11-20 10:00:00 8.9 7 Sur 23 Sur 0 -- -- 69
2019-11-20 09:00:00 8.9 14 Sur 26 Sur 0 -- -- 67
2019-11-20 08:00:00 8.4 3 Sudeste 18 Sudeste 0 -- -- 70
2019-11-20 07:00:00 7.9 7 Sudeste 17 Sudeste 0 -- -- 72
2019-11-20 06:00:00 7.5 8 Sudeste 18 Sudeste 0 -- -- 71
2019-11-20 05:00:00 6.1 2 Nordeste 8 Nordeste 0 -- -- 68
2019-11-20 04:00:00 6.3 2 Este 14 Sudeste 0 -- -- 54
2019-11-20 03:00:00 -- -- -- -- -- -- -- -- --
2019-11-20 02:00:00 -- -- -- -- -- -- -- -- --
2019-11-20 01:00:00 -- -- -- -- -- -- -- -- --
2019-11-20 00:00:00 -- -- -- -- -- -- -- -- --
2019-11-19 23:00:00 -- -- -- -- -- -- -- -- --
2019-11-19 22:00:00 -- -- -- -- -- -- -- -- --
2019-11-19 21:00:00 -- -- -- -- -- -- -- -- --
2019-11-19 20:00:00 -- -- -- -- -- -- -- -- --
2019-11-19 19:00:00 -- -- -- -- -- -- -- -- --
2019-11-19 18:00:00 6.3 -- -- -- -- -- -- -- --
2019-11-19 17:00:00 7.2 5 Sudeste 10 Sudeste 0 -- -- 56
2019-11-19 16:00:00 8.4 3 Noroeste 17 Sur 0 -- -- 55
2019-11-19 15:00:00 9.1 6 Sur 17 Sur 0 -- -- 46
2019-11-19 14:00:00 8.5 -- -- -- -- -- -- -- --
2019-11-19 13:00:00 9.3 6 Sur 13 Sur 0 -- -- 46
2019-11-19 12:00:00 8.6 8 Sur 14 Sur 0 -- -- 51
2019-11-19 11:00:00 6.2 4 Sudeste 10 Sudeste 0 -- -- 64
2019-11-19 10:00:00 3.7 3 Sudeste 8 Este 0 -- -- 80
2019-11-19 09:00:00 3.1 2 Sudeste 8 Este 0 -- -- 80
2019-11-19 08:00:00 3.2 3 Este 8 Este 0 -- -- 82
2019-11-19 07:00:00 3.5 5 Sudeste 9 Sudeste 0 -- -- 82
2019-11-19 06:00:00 -- -- -- -- -- -- -- -- --
2019-11-19 05:00:00 3.3 4 Sudeste 9 Sudeste 0 -- -- 85
2019-11-19 04:00:00 3.4 4 Sudeste 10 Sudeste 0 -- -- 87
2019-11-19 03:00:00 4 4 Sudeste 8 Sudeste 0 -- -- 90
2019-11-19 02:00:00 4 6 Sudeste 8 Sudeste 0 -- -- 92
2019-11-19 01:00:00 3.3 2 Sur 5 Sudeste 0 -- -- 95
2019-11-19 00:00:00 3.8 3 Sudeste 7 Sudeste 0 -- -- 96
2019-11-18 23:00:00 3.6 0 Calma 6 Este 0 -- -- 97
2019-11-18 22:00:00 3.6 0 Calma 3 Este 0 -- -- 98
2019-11-18 21:00:00 3.7 -- -- -- -- 0 -- -- 96
2019-11-18 20:00:00 3.6 0 Calma 6 Sur 0 -- -- 96
2019-11-18 19:00:00 3.8 0 Calma 5 Sur 0 -- -- 94
2019-11-18 18:00:00 4.8 0 Calma 2 Sudeste 0 -- -- 96
2019-11-18 17:00:00 5.1 2 Oeste 13 Noroeste 0 -- -- 93
2019-11-18 16:00:00 5.3 5 Noroeste 14 Noroeste 0 -- -- 94
2019-11-18 15:00:00 5.6 9 Noroeste 21 Noroeste 0 -- -- 91
2019-11-18 14:00:00 5.6 8 Noroeste 18 Noroeste 0 -- -- 91
2019-11-18 13:00:00 5.3 7 Noroeste 19 Noroeste 0 -- -- 93
2019-11-18 12:00:00 5.2 7 Noroeste 19 Noroeste 0 -- -- 94
2019-11-18 11:00:00 5.3 -- -- -- -- -- -- -- --
2019-11-18 10:00:00 4.4 7 Noroeste 12 Noroeste 0 -- -- 97
2019-11-18 09:00:00 3.6 5 Noroeste 13 Noroeste 0.6 -- -- 99
2019-11-18 08:00:00 2.3 6 Sur 12 Sur 2.2 -- -- 98
2019-11-18 07:00:00 3.2 4 Noroeste 22 Noroeste 2.6 -- -- 99
2019-11-18 06:00:00 4 0 Calma 13 Noroeste 0 -- -- 100
2019-11-18 05:00:00 3.6 2 Este 8 Norte 0 -- -- 100
2019-11-18 04:00:00 3.7 4 Noroeste 23 Noroeste 3 -- -- 99
2019-11-18 03:00:00 4.4 6 Norte 22 Noroeste 0 -- -- 99
2019-11-18 02:00:00 4.3 8 Noroeste 24 Norte 1.2 -- -- 98
2019-11-18 01:00:00 4.6 11 Norte 26 Norte 1 -- -- 96
2019-11-18 00:00:00 2.7 2 Sudeste 8 Sudeste 3.2 -- -- 100
2019-11-17 23:00:00 2.3 8 Sudeste 19 Noroeste 4 -- -- 99
2019-11-17 22:00:00 3.3 10 Norte 29 Noroeste 4 -- -- 100
2019-11-17 21:00:00 2.8 12 Norte 26 Norte 5.8 -- -- 99
2019-11-17 20:00:00 3.3 16 Norte 49 Noroeste 6 -- -- 97
2019-11-17 19:00:00 5.5 18 Norte 38 Norte 0.2 -- -- 84
2019-11-17 18:00:00 6.2 13 Noroeste 25 Noroeste 0 -- -- 80
2019-11-17 17:00:00 6.8 8 Norte 35 Noroeste 0 -- -- 79
2019-11-17 16:00:00 6.4 9 Norte 28 Norte 0.2 -- -- 86
2019-11-17 15:00:00 5.8 10 Norte 38 Noroeste 1.2 -- -- 92
2019-11-17 14:00:00 6.9 10 Norte 27 Noroeste 0 -- -- 88
2019-11-17 13:00:00 6.9 6 Norte 28 Norte 0 -- -- 91
2019-11-17 12:00:00 -- -- -- -- -- -- -- -- --
2019-11-17 11:00:00 -- -- -- -- -- -- -- -- --
2019-11-17 10:00:00 -- -- -- -- -- -- -- -- --
2019-11-17 09:00:00 -- -- -- -- -- -- -- -- --
2019-11-17 08:00:00 5.6 5 Sudeste 14 Sudeste 0 -- -- 89
2019-11-17 07:00:00 4.7 7 Este 12 Este 0.6 -- -- 96
2019-11-17 06:00:00 4.4 5 Sudeste 10 Sudeste 2 -- -- 97
2019-11-17 05:00:00 4.1 -- -- -- -- -- -- -- --
2019-11-17 04:00:00 3.9 5 Sudeste 12 Sudeste 1.6 -- -- 96
2019-11-17 03:00:00 3.7 8 Este 14 Este 1.2 -- -- 95
2019-11-17 02:00:00 3.4 6 Sudeste 10 Este 0.8 -- -- 96
2019-11-17 01:00:00 3.2 5 Sudeste 11 Sudeste 0 -- -- 92
2019-11-17 00:00:00 3.3 6 Sudeste 12 Sudeste 0.4 -- -- 93
2019-11-16 23:00:00 2.9 3 Este 16 Noroeste 0.4 -- -- 95
2019-11-16 22:00:00 3.4 7 Norte 21 Norte 0.6 -- -- 93
2019-11-16 21:00:00 3.7 4 Norte 16 Norte 0.2 -- -- 89
2019-11-16 20:00:00 4.3 11 Norte 32 Norte 0 -- -- 82
2019-11-16 19:00:00 4.5 14 Norte 31 Norte 0 -- -- 78
2019-11-16 18:00:00 4.2 13 Norte 43 Norte 0 -- -- 85
2019-11-16 17:00:00 4.4 15 Norte 39 Norte 0.2 -- -- 89
2019-11-16 16:00:00 3.6 12 Norte 40 Norte 5.2 -- -- 97
2019-11-16 15:00:00 4.2 18 Norte 41 Noroeste 3.6 -- -- 92
2019-11-16 14:00:00 5 11 Norte 39 Noroeste 4.2 -- -- 86
2019-11-16 13:00:00 3.4 17 Norte 54 Noroeste 7.4 -- -- 98
2019-11-16 12:00:00 3.9 24 Norte 54 Norte 8.4 -- -- 94
2019-11-16 11:00:00 3.8 14 Norte 30 Norte 7.4 -- -- 92
2019-11-16 10:00:00 3.2 13 Norte 36 Norte 7.4 -- -- 95
2019-11-16 09:00:00 3.9 10 Norte 26 Norte 5.2 -- -- 87
2019-11-16 08:00:00 3.7 13 Norte 25 Norte 3.4 -- -- 87
2019-11-16 07:00:00 3.2 5 Norte 14 Norte 3.4 -- -- 89
2019-11-16 06:00:00 2.8 5 Norte 17 Norte 2.6 -- -- 95
2019-11-16 05:00:00 1.6 0 Calma 4 Sudeste 1.6 -- -- 99
2019-11-16 04:00:00 1.3 0 Calma 0 Calma 1.4 -- -- 99
2019-11-16 03:00:00 1.2 0 Calma 0 Calma 0.8 -- -- 99
2019-11-16 02:00:00 1.2 0 Calma 2 Sudeste 0.6 -- -- 100
2019-11-16 01:00:00 1 0 Calma 2 Norte 0.6 -- -- 100
2019-11-16 00:00:00 0.5 0 Calma -- -- 1 -- -- 100
2019-11-15 23:00:00 0.2 0 Calma -- -- 0.4 -- -- 100
2019-11-15 22:00:00 0.3 0 Calma -- -- 0 -- -- 100
2019-11-15 21:00:00 0.1 0 Calma -- -- 0.2 -- -- 100
2019-11-15 20:00:00 0.1 0 Calma -- -- 0.4 -- -- 100
2019-11-15 19:00:00 0.1 0 Calma 0 Calma 0.8 -- -- 100
2019-11-15 18:00:00 0.2 0 Calma 0 Calma 1 -- -- 100
2019-11-15 17:00:00 0.4 0 Calma 3 Sudeste 0.6 -- -- 100
2019-11-15 16:00:00 0.7 2 Este 6 Este 1.2 -- -- 100
2019-11-15 15:00:00 0.4 0 Calma 5 Sudeste 1 -- -- 100
2019-11-15 14:00:00 0.6 2 Oeste 4 Noroeste 0 -- -- 100
2019-11-15 13:00:00 0.6 0 Calma 12 Norte 0.8 -- -- 98
2019-11-15 12:00:00 1.4 10 Sudeste 19 Noroeste 2.4 -- -- 95
2019-11-15 11:00:00 2.7 9 Noroeste 40 Noroeste 4.6 -- -- 98
2019-11-15 10:00:00 3 8 Noroeste 33 Noroeste 4 -- -- 99
2019-11-15 09:00:00 -- -- -- -- -- -- -- -- --
2019-11-15 08:00:00 3.3 15 Noroeste 36 Noroeste 3 -- -- 97
2019-11-15 07:00:00 2.7 9 Noroeste 31 Noroeste 2.8 -- -- 98
2019-11-15 06:00:00 2.2 5 Sur 24 Oeste 2.2 -- -- 99
2019-11-15 05:00:00 1.5 3 Sudeste 23 Nordeste 3.4 -- -- 97
2019-11-15 04:00:00 1.4 5 Sudeste 9 Sudeste 2.2 -- -- 97
2019-11-15 03:00:00 1.1 2 Sur 11 Noroeste 2.4 -- -- 96
2019-11-15 02:00:00 2.8 3 Norte 22 Norte 1 -- -- 90
2019-11-15 01:00:00 2.2 2 Sudeste 9 Norte 0.6 -- -- 94
2019-11-15 00:00:00 1.7 4 Sudeste 7 Sudeste 1 -- -- 98